FAKN

Details ICAO FAKN (MQP)
Name Kruger Mpumalanga Intl
Region South Africa
Timezone Africa/Johannesburg (UTC+2.0)
Plans Departing 25
Arriving 19
Stats Elevation 2,829 ft / 862 m (AMSL)
Location -25.383099° 31.105408°
Runways 1
Magnetic Variation 18.763° W
Sunrise 2017-12-14 03:00:33 UTC / 2017-12-14 05:00:33 Local
Sunset 2017-12-14 16:42:42 UTC / 2017-12-14 18:42:42 Local
Advertisement - Login to hide

Runways

ID Width Length Bearing (true) Bearing (mag) Surface Threshold Offset Overrun Length
05 148 ft / 45 m 8,538 ft / 2,602 m 34.60° 53.36° Asphalt 1,500 ft / 457 m 0 ft / 0 m
23 148 ft / 45 m 8,538 ft / 2,602 m 214.60° 233.36° Asphalt 0 ft / 0 m 0 ft / 0 m

Approach Navaids

Runway Type Ident Frequency Range Bearing (true) Bearing (mag) Slope Elevation
05 Localiser PKI 109.10 MHz 18 nm / 33 km 34.59° 53.35° - 2,828 ft / 862 m (AMSL)
05 Glidescope PKI 109.10 MHz 10 nm / 19 km 34.60° 53.36° 3.00° 2,828 ft / 862 m (AMSL)

Map

Weather


0- 5 10 15 20 25 30 35+ Temperature / ° C

Clouds and Precipitation
Forecast for 2017-12-14 18:00 UTC. Updated 2 hours ago

Ground ~20,000 ft ~40,000 ft Winds

METAR

FAKN 141900Z AUTO 09007KT //// // ////// 16/14 Q1020

TAF

Not found

Frequencies

Tower 119.20 MHz TWR
Approach 119.20 MHz APP
Warning: Do not use this data for real-world aviation or navigation. No guarantee of current accuracy is given.